sensor_id;sensor_type;location;lat;lon;timestamp;P1;durP1;ratioP1;P2;durP2;ratioP2
55539;SDS011;41384;51.418;7.286;2023-07-22T00:02:20;7.45;;;4.93;;
55539;SDS011;41384;51.418;7.286;2023-07-22T00:04:47;6.15;;;4.30;;
55539;SDS011;41384;51.418;7.286;2023-07-22T00:07:13;7.22;;;4.50;;
55539;SDS011;41384;51.418;7.286;2023-07-22T00:09:38;7.43;;;4.68;;
55539;SDS011;41384;51.418;7.286;2023-07-22T00:12:04;8.43;;;4.90;;
55539;SDS011;41384;51.418;7.286;2023-07-22T00:14:29;7.50;;;4.25;;
55539;SDS011;41384;51.418;7.286;2023-07-22T00:16:55;7.43;;;4.20;;
55539;SDS011;41384;51.418;7.286;2023-07-22T00:19:20;8.52;;;4.35;;
55539;SDS011;41384;51.418;7.286;2023-07-22T00:21:46;7.47;;;4.22;;
55539;SDS011;41384;51.418;7.286;2023-07-22T00:24:11;6.50;;;4.20;;
55539;SDS011;41384;51.418;7.286;2023-07-22T00:26:36;8.27;;;4.90;;
55539;SDS011;41384;51.418;7.286;2023-07-22T00:29:02;10.45;;;4.97;;
55539;SDS011;41384;51.418;7.286;2023-07-22T00:31:27;9.02;;;4.70;;
55539;SDS011;41384;51.418;7.286;2023-07-22T00:33:53;9.18;;;4.82;;
55539;SDS011;41384;51.418;7.286;2023-07-22T00:36:18;9.85;;;4.80;;
55539;SDS011;41384;51.418;7.286;2023-07-22T00:38:43;9.48;;;4.90;;
55539;SDS011;41384;51.418;7.286;2023-07-22T00:41:09;8.52;;;4.45;;
55539;SDS011;41384;51.418;7.286;2023-07-22T00:43:34;7.63;;;4.20;;
55539;SDS011;41384;51.418;7.286;2023-07-22T00:45:59;8.32;;;4.65;;
55539;SDS011;41384;51.418;7.286;2023-07-22T00:48:25;7.32;;;4.50;;
55539;SDS011;41384;51.418;7.286;2023-07-22T00:50:52;10.13;;;4.80;;
55539;SDS011;41384;51.418;7.286;2023-07-22T00:53:18;7.75;;;4.70;;
55539;SDS011;41384;51.418;7.286;2023-07-22T00:55:43;8.35;;;4.50;;
55539;SDS011;41384;51.418;7.286;2023-07-22T00:58:10;8.98;;;4.63;;
55539;SDS011;41384;51.418;7.286;2023-07-22T01:00:35;8.25;;;4.25;;
55539;SDS011;41384;51.418;7.286;2023-07-22T01:03:01;7.18;;;4.95;;
55539;SDS011;41384;51.418;7.286;2023-07-22T01:05:26;8.13;;;4.45;;
55539;SDS011;41384;51.418;7.286;2023-07-22T01:07:52;7.13;;;4.15;;
55539;SDS011;41384;51.418;7.286;2023-07-22T01:10:18;6.55;;;4.22;;
55539;SDS011;41384;51.418;7.286;2023-07-22T01:12:44;6.63;;;4.43;;
55539;SDS011;41384;51.418;7.286;2023-07-22T01:15:10;8.40;;;4.30;;
55539;SDS011;41384;51.418;7.286;2023-07-22T01:17:36;8.32;;;5.03;;
55539;SDS011;41384;51.418;7.286;2023-07-22T01:20:02;7.25;;;4.40;;
55539;SDS011;41384;51.418;7.286;2023-07-22T01:22:28;7.38;;;4.57;;
55539;SDS011;41384;51.418;7.286;2023-07-22T01:24:54;8.50;;;4.75;;
55539;SDS011;41384;51.418;7.286;2023-07-22T01:27:20;8.25;;;4.32;;
55539;SDS011;41384;51.418;7.286;2023-07-22T01:29:46;6.88;;;4.50;;
55539;SDS011;41384;51.418;7.286;2023-07-22T01:32:11;8.05;;;4.78;;
55539;SDS011;41384;51.418;7.286;2023-07-22T01:34:36;7.07;;;4.35;;
55539;SDS011;41384;51.418;7.286;2023-07-22T01:37:02;8.80;;;4.68;;
55539;SDS011;41384;51.418;7.286;2023-07-22T01:39:29;7.43;;;4.28;;
55539;SDS011;41384;51.418;7.286;2023-07-22T01:41:54;9.52;;;4.60;;
55539;SDS011;41384;51.418;7.286;2023-07-22T01:44:20;6.55;;;4.40;;
55539;SDS011;41384;51.418;7.286;2023-07-22T01:46:45;9.45;;;4.78;;
55539;SDS011;41384;51.418;7.286;2023-07-22T01:49:11;6.85;;;4.60;;
55539;SDS011;41384;51.418;7.286;2023-07-22T01:51:37;8.07;;;4.75;;
55539;SDS011;41384;51.418;7.286;2023-07-22T01:54:03;8.02;;;4.68;;
55539;SDS011;41384;51.418;7.286;2023-07-22T01:56:29;7.10;;;4.55;;
55539;SDS011;41384;51.418;7.286;2023-07-22T01:58:55;7.40;;;4.50;;
55539;SDS011;41384;51.418;7.286;2023-07-22T02:01:20;8.52;;;4.95;;
55539;SDS011;41384;51.418;7.286;2023-07-22T02:03:45;7.95;;;4.00;;
55539;SDS011;41384;51.418;7.286;2023-07-22T02:06:11;11.10;;;5.00;;
55539;SDS011;41384;51.418;7.286;2023-07-22T02:08:36;7.75;;;4.53;;
55539;SDS011;41384;51.418;7.286;2023-07-22T02:11:02;9.15;;;4.78;;
55539;SDS011;41384;51.418;7.286;2023-07-22T02:13:29;8.18;;;4.55;;
55539;SDS011;41384;51.418;7.286;2023-07-22T02:15:55;8.32;;;5.00;;
55539;SDS011;41384;51.418;7.286;2023-07-22T02:18:21;7.07;;;4.65;;
55539;SDS011;41384;51.418;7.286;2023-07-22T02:20:46;9.90;;;4.80;;
55539;SDS011;41384;51.418;7.286;2023-07-22T02:23:11;8.30;;;5.07;;
55539;SDS011;41384;51.418;7.286;2023-07-22T02:25:36;8.35;;;4.80;;
55539;SDS011;41384;51.418;7.286;2023-07-22T02:28:02;8.20;;;4.70;;
55539;SDS011;41384;51.418;7.286;2023-07-22T02:30:27;9.55;;;4.97;;
55539;SDS011;41384;51.418;7.286;2023-07-22T02:32:52;8.02;;;4.95;;
55539;SDS011;41384;51.418;7.286;2023-07-22T02:35:18;7.22;;;5.47;;
55539;SDS011;41384;51.418;7.286;2023-07-22T02:37:43;8.13;;;4.88;;
55539;SDS011;41384;51.418;7.286;2023-07-22T02:40:08;7.05;;;4.72;;
55539;SDS011;41384;51.418;7.286;2023-07-22T02:42:36;9.43;;;4.68;;
55539;SDS011;41384;51.418;7.286;2023-07-22T02:45:02;9.60;;;4.82;;
55539;SDS011;41384;51.418;7.286;2023-07-22T02:47:29;8.80;;;4.72;;
55539;SDS011;41384;51.418;7.286;2023-07-22T02:49:54;7.65;;;4.65;;
55539;SDS011;41384;51.418;7.286;2023-07-22T02:52:20;7.43;;;4.53;;
55539;SDS011;41384;51.418;7.286;2023-07-22T02:55:03;8.27;;;4.72;;
55539;SDS011;41384;51.418;7.286;2023-07-22T02:57:29;8.52;;;4.32;;
55539;SDS011;41384;51.418;7.286;2023-07-22T02:59:56;6.68;;;4.65;;
55539;SDS011;41384;51.418;7.286;2023-07-22T03:02:21;8.07;;;4.47;;
55539;SDS011;41384;51.418;7.286;2023-07-22T03:04:46;8.55;;;5.28;;
55539;SDS011;41384;51.418;7.286;2023-07-22T03:07:11;8.63;;;4.80;;
55539;SDS011;41384;51.418;7.286;2023-07-22T03:09:37;8.02;;;4.70;;
55539;SDS011;41384;51.418;7.286;2023-07-22T03:12:02;9.25;;;4.68;;
55539;SDS011;41384;51.418;7.286;2023-07-22T03:14:28;7.63;;;4.43;;
55539;SDS011;41384;51.418;7.286;2023-07-22T03:16:53;8.93;;;4.85;;
55539;SDS011;41384;51.418;7.286;2023-07-22T03:19:19;10.65;;;5.03;;
55539;SDS011;41384;51.418;7.286;2023-07-22T03:21:44;9.20;;;4.43;;
55539;SDS011;41384;51.418;7.286;2023-07-22T03:24:09;8.90;;;4.75;;
55539;SDS011;41384;51.418;7.286;2023-07-22T03:26:34;8.63;;;5.20;;
55539;SDS011;41384;51.418;7.286;2023-07-22T03:29:00;7.50;;;4.53;;
55539;SDS011;41384;51.418;7.286;2023-07-22T03:31:26;9.13;;;4.53;;
55539;SDS011;41384;51.418;7.286;2023-07-22T03:33:51;8.57;;;4.43;;
55539;SDS011;41384;51.418;7.286;2023-07-22T03:36:17;9.77;;;5.22;;
55539;SDS011;41384;51.418;7.286;2023-07-22T03:38:42;7.10;;;4.90;;
55539;SDS011;41384;51.418;7.286;2023-07-22T03:41:08;8.23;;;5.00;;
55539;SDS011;41384;51.418;7.286;2023-07-22T03:43:33;11.63;;;5.10;;
55539;SDS011;41384;51.418;7.286;2023-07-22T03:45:58;7.38;;;4.85;;
55539;SDS011;41384;51.418;7.286;2023-07-22T03:48:23;8.13;;;4.68;;
55539;SDS011;41384;51.418;7.286;2023-07-22T03:50:49;11.07;;;4.82;;
55539;SDS011;41384;51.418;7.286;2023-07-22T03:53:14;7.65;;;4.82;;
55539;SDS011;41384;51.418;7.286;2023-07-22T03:55:39;6.45;;;4.85;;
55539;SDS011;41384;51.418;7.286;2023-07-22T03:58:05;7.25;;;4.30;;
55539;SDS011;41384;51.418;7.286;2023-07-22T04:00:31;9.27;;;4.25;;
55539;SDS011;41384;51.418;7.286;2023-07-22T04:02:56;9.00;;;5.07;;
55539;SDS011;41384;51.418;7.286;2023-07-22T04:05:22;8.20;;;4.70;;
55539;SDS011;41384;51.418;7.286;2023-07-22T04:07:47;8.63;;;5.13;;
55539;SDS011;41384;51.418;7.286;2023-07-22T04:10:12;7.70;;;5.28;;
55539;SDS011;41384;51.418;7.286;2023-07-22T04:12:38;8.98;;;4.90;;
55539;SDS011;41384;51.418;7.286;2023-07-22T04:15:03;8.85;;;5.00;;
55539;SDS011;41384;51.418;7.286;2023-07-22T04:17:28;7.25;;;4.55;;
55539;SDS011;41384;51.418;7.286;2023-07-22T04:19:54;8.57;;;4.85;;
55539;SDS011;41384;51.418;7.286;2023-07-22T04:22:20;7.35;;;4.63;;
55539;SDS011;41384;51.418;7.286;2023-07-22T04:24:46;7.15;;;4.32;;
55539;SDS011;41384;51.418;7.286;2023-07-22T04:27:14;7.60;;;4.32;;
55539;SDS011;41384;51.418;7.286;2023-07-22T04:29:40;7.65;;;4.05;;
55539;SDS011;41384;51.418;7.286;2023-07-22T04:32:06;7.68;;;4.43;;
55539;SDS011;41384;51.418;7.286;2023-07-22T04:34:33;7.43;;;4.25;;
55539;SDS011;41384;51.418;7.286;2023-07-22T04:36:59;6.78;;;4.13;;
55539;SDS011;41384;51.418;7.286;2023-07-22T04:39:24;6.07;;;4.00;;
55539;SDS011;41384;51.418;7.286;2023-07-22T04:41:50;8.30;;;4.40;;
55539;SDS011;41384;51.418;7.286;2023-07-22T04:44:16;6.80;;;4.35;;
55539;SDS011;41384;51.418;7.286;2023-07-22T04:46:42;9.52;;;4.10;;
55539;SDS011;41384;51.418;7.286;2023-07-22T04:49:07;6.55;;;4.25;;
55539;SDS011;41384;51.418;7.286;2023-07-22T04:51:33;7.70;;;4.05;;
55539;SDS011;41384;51.418;7.286;2023-07-22T04:53:58;7.28;;;4.20;;
55539;SDS011;41384;51.418;7.286;2023-07-22T04:56:24;6.63;;;3.70;;
55539;SDS011;41384;51.418;7.286;2023-07-22T04:58:49;8.00;;;4.32;;
55539;SDS011;41384;51.418;7.286;2023-07-22T05:01:15;8.57;;;4.50;;
55539;SDS011;41384;51.418;7.286;2023-07-22T05:03:40;8.38;;;3.97;;
55539;SDS011;41384;51.418;7.286;2023-07-22T05:06:06;7.20;;;4.15;;
55539;SDS011;41384;51.418;7.286;2023-07-22T05:08:31;6.43;;;4.07;;
55539;SDS011;41384;51.418;7.286;2023-07-22T05:10:56;8.65;;;4.03;;
55539;SDS011;41384;51.418;7.286;2023-07-22T05:13:21;7.65;;;4.38;;
55539;SDS011;41384;51.418;7.286;2023-07-22T05:15:47;7.95;;;3.70;;
55539;SDS011;41384;51.418;7.286;2023-07-22T05:18:12;8.15;;;3.58;;
55539;SDS011;41384;51.418;7.286;2023-07-22T05:20:37;6.97;;;4.03;;
55539;SDS011;41384;51.418;7.286;2023-07-22T05:23:04;7.20;;;3.85;;
55539;SDS011;41384;51.418;7.286;2023-07-22T05:25:29;5.80;;;3.33;;
55539;SDS011;41384;51.418;7.286;2023-07-22T05:27:55;6.03;;;3.58;;
55539;SDS011;41384;51.418;7.286;2023-07-22T05:30:20;5.80;;;3.67;;
55539;SDS011;41384;51.418;7.286;2023-07-22T05:32:45;7.53;;;3.67;;
55539;SDS011;41384;51.418;7.286;2023-07-22T05:35:11;5.47;;;3.72;;
55539;SDS011;41384;51.418;7.286;2023-07-22T05:37:36;6.03;;;3.40;;
55539;SDS011;41384;51.418;7.286;2023-07-22T05:40:01;7.28;;;3.97;;
55539;SDS011;41384;51.418;7.286;2023-07-22T05:42:27;6.03;;;4.07;;
55539;SDS011;41384;51.418;7.286;2023-07-22T05:44:54;6.22;;;3.45;;
55539;SDS011;41384;51.418;7.286;2023-07-22T05:47:20;5.85;;;3.60;;
55539;SDS011;41384;51.418;7.286;2023-07-22T05:49:46;6.75;;;3.90;;
55539;SDS011;41384;51.418;7.286;2023-07-22T05:52:11;7.50;;;3.85;;
55539;SDS011;41384;51.418;7.286;2023-07-22T05:54:37;6.45;;;4.00;;
55539;SDS011;41384;51.418;7.286;2023-07-22T05:57:02;7.05;;;4.55;;
55539;SDS011;41384;51.418;7.286;2023-07-22T05:59:28;7.00;;;4.40;;
55539;SDS011;41384;51.418;7.286;2023-07-22T06:01:54;6.35;;;4.00;;
55539;SDS011;41384;51.418;7.286;2023-07-22T06:04:19;7.32;;;4.10;;
55539;SDS011;41384;51.418;7.286;2023-07-22T06:06:45;8.27;;;4.40;;
55539;SDS011;41384;51.418;7.286;2023-07-22T06:09:10;10.48;;;4.68;;
55539;SDS011;41384;51.418;7.286;2023-07-22T06:11:35;5.97;;;3.97;;
55539;SDS011;41384;51.418;7.286;2023-07-22T06:14:01;7.05;;;4.60;;
55539;SDS011;41384;51.418;7.286;2023-07-22T06:16:27;7.93;;;4.05;;
55539;SDS011;41384;51.418;7.286;2023-07-22T06:18:52;6.10;;;4.13;;
55539;SDS011;41384;51.418;7.286;2023-07-22T06:21:18;7.53;;;4.50;;
55539;SDS011;41384;51.418;7.286;2023-07-22T06:23:43;7.10;;;4.18;;
55539;SDS011;41384;51.418;7.286;2023-07-22T06:26:08;7.97;;;4.40;;
55539;SDS011;41384;51.418;7.286;2023-07-22T06:28:34;7.43;;;4.45;;
55539;SDS011;41384;51.418;7.286;2023-07-22T06:30:59;7.85;;;4.43;;
55539;SDS011;41384;51.418;7.286;2023-07-22T06:33:24;8.05;;;4.65;;
55539;SDS011;41384;51.418;7.286;2023-07-22T06:35:50;7.82;;;3.97;;
55539;SDS011;41384;51.418;7.286;2023-07-22T06:38:15;7.32;;;4.57;;
55539;SDS011;41384;51.418;7.286;2023-07-22T06:40:40;6.88;;;4.05;;
55539;SDS011;41384;51.418;7.286;2023-07-22T06:43:06;7.80;;;4.20;;
55539;SDS011;41384;51.418;7.286;2023-07-22T06:45:31;6.45;;;4.50;;
55539;SDS011;41384;51.418;7.286;2023-07-22T06:47:57;5.57;;;3.92;;
55539;SDS011;41384;51.418;7.286;2023-07-22T06:50:23;8.38;;;4.05;;
55539;SDS011;41384;51.418;7.286;2023-07-22T06:52:48;7.90;;;4.70;;
55539;SDS011;41384;51.418;7.286;2023-07-22T06:55:14;6.60;;;4.20;;
55539;SDS011;41384;51.418;7.286;2023-07-22T06:57:39;7.45;;;4.60;;
55539;SDS011;41384;51.418;7.286;2023-07-22T07:00:05;7.20;;;4.07;;
55539;SDS011;41384;51.418;7.286;2023-07-22T07:02:30;8.00;;;4.30;;
55539;SDS011;41384;51.418;7.286;2023-07-22T07:04:56;6.85;;;4.20;;
55539;SDS011;41384;51.418;7.286;2023-07-22T07:07:21;10.38;;;4.05;;
55539;SDS011;41384;51.418;7.286;2023-07-22T07:09:47;6.47;;;3.63;;
55539;SDS011;41384;51.418;7.286;2023-07-22T07:12:12;8.77;;;4.13;;
55539;SDS011;41384;51.418;7.286;2023-07-22T07:14:37;6.93;;;4.03;;
55539;SDS011;41384;51.418;7.286;2023-07-22T07:17:03;6.68;;;4.03;;
55539;SDS011;41384;51.418;7.286;2023-07-22T07:19:28;7.07;;;3.90;;
55539;SDS011;41384;51.418;7.286;2023-07-22T07:21:54;5.10;;;3.60;;
55539;SDS011;41384;51.418;7.286;2023-07-22T07:24:19;7.47;;;3.90;;
55539;SDS011;41384;51.418;7.286;2023-07-22T07:26:44;7.10;;;3.92;;
55539;SDS011;41384;51.418;7.286;2023-07-22T07:29:10;6.78;;;4.07;;
55539;SDS011;41384;51.418;7.286;2023-07-22T07:31:37;8.88;;;4.07;;
55539;SDS011;41384;51.418;7.286;2023-07-22T07:34:03;8.18;;;4.97;;
55539;SDS011;41384;51.418;7.286;2023-07-22T07:36:28;7.07;;;3.67;;
55539;SDS011;41384;51.418;7.286;2023-07-22T07:38:53;6.88;;;3.53;;
55539;SDS011;41384;51.418;7.286;2023-07-22T07:41:19;6.28;;;3.80;;
55539;SDS011;41384;51.418;7.286;2023-07-22T07:43:47;6.45;;;3.92;;
55539;SDS011;41384;51.418;7.286;2023-07-22T07:48:52;6.65;;;4.15;;
55539;SDS011;41384;51.418;7.286;2023-07-22T07:51:19;6.72;;;3.95;;
55539;SDS011;41384;51.418;7.286;2023-07-22T07:53:46;7.95;;;3.92;;
55539;SDS011;41384;51.418;7.286;2023-07-22T07:56:15;5.88;;;3.47;;
55539;SDS011;41384;51.418;7.286;2023-07-22T07:58:41;9.93;;;4.13;;
55539;SDS011;41384;51.418;7.286;2023-07-22T08:01:07;7.00;;;3.95;;
55539;SDS011;41384;51.418;7.286;2023-07-22T08:03:32;6.82;;;4.10;;
55539;SDS011;41384;51.418;7.286;2023-07-22T08:05:59;6.68;;;4.15;;
55539;SDS011;41384;51.418;7.286;2023-07-22T08:08:25;6.38;;;3.97;;
55539;SDS011;41384;51.418;7.286;2023-07-22T08:11:06;9.57;;;4.40;;
55539;SDS011;41384;51.418;7.286;2023-07-22T08:16:03;6.75;;;4.28;;
55539;SDS011;41384;51.418;7.286;2023-07-22T08:18:30;7.35;;;4.28;;
55539;SDS011;41384;51.418;7.286;2023-07-22T08:20:56;7.20;;;4.68;;
55539;SDS011;41384;51.418;7.286;2023-07-22T08:23:22;8.60;;;4.90;;
55539;SDS011;41384;51.418;7.286;2023-07-22T08:25:48;6.78;;;4.53;;
55539;SDS011;41384;51.418;7.286;2023-07-22T08:28:13;7.53;;;4.72;;
55539;SDS011;41384;51.418;7.286;2023-07-22T08:30:39;8.70;;;4.63;;
55539;SDS011;41384;51.418;7.286;2023-07-22T08:33:05;8.63;;;4.82;;
55539;SDS011;41384;51.418;7.286;2023-07-22T08:35:33;8.50;;;4.97;;
55539;SDS011;41384;51.418;7.286;2023-07-22T08:37:59;8.88;;;5.00;;
55539;SDS011;41384;51.418;7.286;2023-07-22T08:40:24;6.75;;;4.78;;
55539;SDS011;41384;51.418;7.286;2023-07-22T08:42:49;8.65;;;4.82;;
55539;SDS011;41384;51.418;7.286;2023-07-22T08:45:15;8.55;;;4.93;;
55539;SDS011;41384;51.418;7.286;2023-07-22T08:47:44;7.90;;;4.72;;
55539;SDS011;41384;51.418;7.286;2023-07-22T08:50:11;10.98;;;5.85;;
55539;SDS011;41384;51.418;7.286;2023-07-22T08:52:39;7.68;;;5.10;;
55539;SDS011;41384;51.418;7.286;2023-07-22T08:55:05;7.03;;;4.70;;
55539;SDS011;41384;51.418;7.286;2023-07-22T08:57:31;7.78;;;5.07;;
55539;SDS011;41384;51.418;7.286;2023-07-22T08:59:57;9.85;;;4.97;;
55539;SDS011;41384;51.418;7.286;2023-07-22T09:02:23;9.88;;;5.05;;
55539;SDS011;41384;51.418;7.286;2023-07-22T09:04:50;8.43;;;5.45;;
55539;SDS011;41384;51.418;7.286;2023-07-22T09:07:15;7.47;;;4.78;;
55539;SDS011;41384;51.418;7.286;2023-07-22T09:09:43;7.90;;;4.72;;
55539;SDS011;41384;51.418;7.286;2023-07-22T09:12:09;8.98;;;5.00;;
55539;SDS011;41384;51.418;7.286;2023-07-22T09:14:35;8.27;;;5.30;;
55539;SDS011;41384;51.418;7.286;2023-07-22T09:17:03;7.95;;;4.95;;
55539;SDS011;41384;51.418;7.286;2023-07-22T09:19:30;10.07;;;5.22;;
55539;SDS011;41384;51.418;7.286;2023-07-22T09:21:55;10.98;;;5.30;;
55539;SDS011;41384;51.418;7.286;2023-07-22T09:24:21;11.07;;;5.53;;
55539;SDS011;41384;51.418;7.286;2023-07-22T09:26:48;9.15;;;4.40;;
55539;SDS011;41384;51.418;7.286;2023-07-22T09:29:13;7.25;;;4.57;;
55539;SDS011;41384;51.418;7.286;2023-07-22T09:31:48;8.95;;;4.88;;
55539;SDS011;41384;51.418;7.286;2023-07-22T09:34:15;8.15;;;4.95;;
55539;SDS011;41384;51.418;7.286;2023-07-22T09:36:50;9.10;;;4.90;;
55539;SDS011;41384;51.418;7.286;2023-07-22T09:39:20;7.03;;;4.85;;
55539;SDS011;41384;51.418;7.286;2023-07-22T09:41:46;12.38;;;5.38;;
55539;SDS011;41384;51.418;7.286;2023-07-22T09:44:11;8.20;;;5.13;;
55539;SDS011;41384;51.418;7.286;2023-07-22T09:46:39;7.03;;;3.90;;
55539;SDS011;41384;51.418;7.286;2023-07-22T09:49:05;8.25;;;4.22;;
55539;SDS011;41384;51.418;7.286;2023-07-22T09:51:34;5.70;;;3.67;;
55539;SDS011;41384;51.418;7.286;2023-07-22T09:54:01;6.15;;;3.65;;
55539;SDS011;41384;51.418;7.286;2023-07-22T09:56:28;6.95;;;3.67;;
55539;SDS011;41384;51.418;7.286;2023-07-22T09:58:53;7.07;;;4.20;;
55539;SDS011;41384;51.418;7.286;2023-07-22T10:01:19;6.53;;;3.60;;
55539;SDS011;41384;51.418;7.286;2023-07-22T10:03:47;6.00;;;3.92;;
55539;SDS011;41384;51.418;7.286;2023-07-22T10:06:26;5.43;;;3.42;;
55539;SDS011;41384;51.418;7.286;2023-07-22T10:08:53;6.30;;;4.05;;
55539;SDS011;41384;51.418;7.286;2023-07-22T10:11:20;6.50;;;3.33;;
55539;SDS011;41384;51.418;7.286;2023-07-22T10:13:47;5.45;;;3.10;;
55539;SDS011;41384;51.418;7.286;2023-07-22T10:16:13;6.05;;;3.50;;
55539;SDS011;41384;51.418;7.286;2023-07-22T10:18:38;7.65;;;4.22;;
55539;SDS011;41384;51.418;7.286;2023-07-22T10:21:06;6.93;;;4.00;;
55539;SDS011;41384;51.418;7.286;2023-07-22T10:23:32;6.90;;;4.15;;
55539;SDS011;41384;51.418;7.286;2023-07-22T10:25:57;6.68;;;4.18;;
55539;SDS011;41384;51.418;7.286;2023-07-22T10:28:23;9.05;;;4.15;;
55539;SDS011;41384;51.418;7.286;2023-07-22T10:30:49;8.25;;;3.63;;
55539;SDS011;41384;51.418;7.286;2023-07-22T10:33:16;5.50;;;3.45;;
55539;SDS011;41384;51.418;7.286;2023-07-22T10:35:42;5.57;;;3.78;;
55539;SDS011;41384;51.418;7.286;2023-07-22T10:38:10;8.73;;;3.88;;
55539;SDS011;41384;51.418;7.286;2023-07-22T10:40:44;6.28;;;3.60;;
55539;SDS011;41384;51.418;7.286;2023-07-22T10:43:10;6.30;;;3.88;;
55539;SDS011;41384;51.418;7.286;2023-07-22T10:45:40;6.20;;;4.10;;
55539;SDS011;41384;51.418;7.286;2023-07-22T10:48:07;7.05;;;4.25;;
55539;SDS011;41384;51.418;7.286;2023-07-22T10:50:38;7.68;;;3.40;;
55539;SDS011;41384;51.418;7.286;2023-07-22T10:53:09;5.00;;;3.42;;
55539;SDS011;41384;51.418;7.286;2023-07-22T11:06:30;6.97;;;3.20;;
55539;SDS011;41384;51.418;7.286;2023-07-22T11:08:56;7.43;;;3.25;;
55539;SDS011;41384;51.418;7.286;2023-07-22T11:11:33;5.13;;;3.30;;
55539;SDS011;41384;51.418;7.286;2023-07-22T11:14:13;4.15;;;2.63;;
55539;SDS011;41384;51.418;7.286;2023-07-22T11:16:44;4.68;;;2.75;;
55539;SDS011;41384;51.418;7.286;2023-07-22T11:19:10;3.42;;;2.35;;
55539;SDS011;41384;51.418;7.286;2023-07-22T11:21:35;4.03;;;2.15;;
55539;SDS011;41384;51.418;7.286;2023-07-22T11:24:02;2.90;;;2.40;;
55539;SDS011;41384;51.418;7.286;2023-07-22T11:26:29;3.55;;;2.05;;
55539;SDS011;41384;51.418;7.286;2023-07-22T11:28:54;37.60;;;3.97;;
55539;SDS011;41384;51.418;7.286;2023-07-22T11:31:20;3.92;;;1.92;;
55539;SDS011;41384;51.418;7.286;2023-07-22T11:33:45;3.47;;;2.25;;
55539;SDS011;41384;51.418;7.286;2023-07-22T11:36:12;1.80;;;1.60;;
55539;SDS011;41384;51.418;7.286;2023-07-22T11:38:38;2.88;;;1.65;;
55539;SDS011;41384;51.418;7.286;2023-07-22T11:41:04;4.40;;;1.95;;
55539;SDS011;41384;51.418;7.286;2023-07-22T11:43:29;2.42;;;1.88;;
55539;SDS011;41384;51.418;7.286;2023-07-22T11:45:54;3.70;;;2.10;;
55539;SDS011;41384;51.418;7.286;2023-07-22T11:48:20;4.15;;;1.77;;
55539;SDS011;41384;51.418;7.286;2023-07-22T11:50:45;3.03;;;1.90;;
55539;SDS011;41384;51.418;7.286;2023-07-22T11:53:10;4.68;;;2.20;;
55539;SDS011;41384;51.418;7.286;2023-07-22T11:55:36;2.33;;;1.60;;
55539;SDS011;41384;51.418;7.286;2023-07-22T11:58:01;5.43;;;2.10;;
55539;SDS011;41384;51.418;7.286;2023-07-22T12:00:28;2.88;;;2.00;;
55539;SDS011;41384;51.418;7.286;2023-07-22T12:02:54;5.82;;;1.83;;
55539;SDS011;41384;51.418;7.286;2023-07-22T12:05:22;3.92;;;2.13;;
55539;SDS011;41384;51.418;7.286;2023-07-22T12:07:47;3.58;;;2.15;;
55539;SDS011;41384;51.418;7.286;2023-07-22T12:10:12;3.85;;;2.15;;
55539;SDS011;41384;51.418;7.286;2023-07-22T12:12:41;3.67;;;2.10;;
55539;SDS011;41384;51.418;7.286;2023-07-22T12:15:10;5.03;;;2.20;;
55539;SDS011;41384;51.418;7.286;2023-07-22T12:20:24;3.58;;;2.13;;
55539;SDS011;41384;51.418;7.286;2023-07-22T12:22:54;5.57;;;2.13;;
55539;SDS011;41384;51.418;7.286;2023-07-22T12:25:20;4.18;;;1.90;;
55539;SDS011;41384;51.418;7.286;2023-07-22T12:27:45;3.35;;;1.88;;
55539;SDS011;41384;51.418;7.286;2023-07-22T12:30:11;3.00;;;1.90;;
55539;SDS011;41384;51.418;7.286;2023-07-22T12:32:37;3.58;;;2.65;;
55539;SDS011;41384;51.418;7.286;2023-07-22T12:35:03;6.55;;;1.88;;
55539;SDS011;41384;51.418;7.286;2023-07-22T12:37:28;2.95;;;1.40;;
55539;SDS011;41384;51.418;7.286;2023-07-22T12:39:54;5.10;;;1.95;;
55539;SDS011;41384;51.418;7.286;2023-07-22T12:42:19;3.42;;;2.10;;
55539;SDS011;41384;51.418;7.286;2023-07-22T12:44:44;3.28;;;1.60;;
55539;SDS011;41384;51.418;7.286;2023-07-22T12:47:10;3.38;;;1.63;;
55539;SDS011;41384;51.418;7.286;2023-07-22T12:49:36;4.47;;;1.85;;
55539;SDS011;41384;51.418;7.286;2023-07-22T12:52:01;2.65;;;1.55;;
55539;SDS011;41384;51.418;7.286;2023-07-22T12:54:30;3.70;;;2.00;;
55539;SDS011;41384;51.418;7.286;2023-07-22T12:56:56;1.98;;;1.30;;
55539;SDS011;41384;51.418;7.286;2023-07-22T12:59:21;2.72;;;1.80;;
55539;SDS011;41384;51.418;7.286;2023-07-22T13:01:47;4.05;;;1.92;;
55539;SDS011;41384;51.418;7.286;2023-07-22T13:04:12;2.60;;;1.73;;
55539;SDS011;41384;51.418;7.286;2023-07-22T13:06:37;2.50;;;1.70;;
55539;SDS011;41384;51.418;7.286;2023-07-22T13:09:03;2.53;;;1.60;;
55539;SDS011;41384;51.418;7.286;2023-07-22T13:11:28;3.85;;;2.00;;
55539;SDS011;41384;51.418;7.286;2023-07-22T13:13:54;6.88;;;1.75;;
55539;SDS011;41384;51.418;7.286;2023-07-22T13:16:19;3.10;;;2.22;;
55539;SDS011;41384;51.418;7.286;2023-07-22T13:18:44;4.40;;;1.98;;
55539;SDS011;41384;51.418;7.286;2023-07-22T13:21:09;3.13;;;1.75;;
55539;SDS011;41384;51.418;7.286;2023-07-22T13:23:35;3.60;;;1.90;;
55539;SDS011;41384;51.418;7.286;2023-07-22T13:26:00;3.65;;;1.80;;
55539;SDS011;41384;51.418;7.286;2023-07-22T13:28:25;2.97;;;1.60;;
55539;SDS011;41384;51.418;7.286;2023-07-22T13:30:50;3.30;;;1.85;;
55539;SDS011;41384;51.418;7.286;2023-07-22T13:33:16;4.18;;;1.88;;
55539;SDS011;41384;51.418;7.286;2023-07-22T13:35:41;3.08;;;1.88;;
55539;SDS011;41384;51.418;7.286;2023-07-22T13:38:07;4.13;;;2.17;;
55539;SDS011;41384;51.418;7.286;2023-07-22T13:40:32;4.53;;;2.05;;
55539;SDS011;41384;51.418;7.286;2023-07-22T13:42:57;3.47;;;1.70;;
55539;SDS011;41384;51.418;7.286;2023-07-22T13:45:23;3.00;;;1.98;;
55539;SDS011;41384;51.418;7.286;2023-07-22T13:47:48;3.97;;;2.00;;
55539;SDS011;41384;51.418;7.286;2023-07-22T13:50:13;4.50;;;2.13;;
55539;SDS011;41384;51.418;7.286;2023-07-22T13:52:39;4.55;;;1.92;;
55539;SDS011;41384;51.418;7.286;2023-07-22T13:55:06;5.72;;;1.83;;
55539;SDS011;41384;51.418;7.286;2023-07-22T13:57:32;2.95;;;2.00;;
55539;SDS011;41384;51.418;7.286;2023-07-22T13:59:57;4.05;;;2.13;;
55539;SDS011;41384;51.418;7.286;2023-07-22T14:02:22;3.30;;;2.10;;
55539;SDS011;41384;51.418;7.286;2023-07-22T14:04:48;4.45;;;2.03;;
55539;SDS011;41384;51.418;7.286;2023-07-22T14:07:13;4.75;;;2.00;;
55539;SDS011;41384;51.418;7.286;2023-07-22T14:09:38;3.25;;;1.98;;
55539;SDS011;41384;51.418;7.286;2023-07-22T14:12:04;3.10;;;2.00;;
55539;SDS011;41384;51.418;7.286;2023-07-22T14:14:29;9.70;;;2.10;;
55539;SDS011;41384;51.418;7.286;2023-07-22T14:16:55;4.10;;;2.45;;
55539;SDS011;41384;51.418;7.286;2023-07-22T14:19:21;3.33;;;2.30;;
55539;SDS011;41384;51.418;7.286;2023-07-22T14:21:46;2.72;;;1.80;;
55539;SDS011;41384;51.418;7.286;2023-07-22T14:24:12;3.03;;;1.90;;
55539;SDS011;41384;51.418;7.286;2023-07-22T14:26:37;3.38;;;1.92;;
55539;SDS011;41384;51.418;7.286;2023-07-22T14:29:02;4.40;;;2.00;;
55539;SDS011;41384;51.418;7.286;2023-07-22T14:31:27;3.38;;;1.60;;
55539;SDS011;41384;51.418;7.286;2023-07-22T14:33:53;3.65;;;1.80;;
55539;SDS011;41384;51.418;7.286;2023-07-22T14:36:18;3.72;;;1.83;;
55539;SDS011;41384;51.418;7.286;2023-07-22T14:38:43;2.25;;;1.70;;
55539;SDS011;41384;51.418;7.286;2023-07-22T14:41:09;2.85;;;1.70;;
55539;SDS011;41384;51.418;7.286;2023-07-22T14:43:36;3.95;;;1.80;;
55539;SDS011;41384;51.418;7.286;2023-07-22T14:46:01;3.50;;;1.75;;
55539;SDS011;41384;51.418;7.286;2023-07-22T14:48:26;4.72;;;1.88;;
55539;SDS011;41384;51.418;7.286;2023-07-22T14:50:51;4.22;;;1.92;;
55539;SDS011;41384;51.418;7.286;2023-07-22T14:53:17;2.95;;;1.60;;
55539;SDS011;41384;51.418;7.286;2023-07-22T14:55:42;2.88;;;1.63;;
55539;SDS011;41384;51.418;7.286;2023-07-22T14:58:07;4.55;;;1.88;;
55539;SDS011;41384;51.418;7.286;2023-07-22T15:00:33;3.70;;;2.00;;